Contrecoeur, Canada
Current Conditions -  °F | °C
As of 7:00 PM on Sunday 21 Dec 2014 (Local Time) from CYHU Reporting Station
Overcast Overcast  
Wind Chill:   Ceiling: 2100
Heat Index: 16°   Visibility: 7mi
Dew Point: 12°   Wind: 6mph
Humidity: 86%   Direction: 40°NE
Pressure: 30.42"   Gusts: NA
Location:  45.85°N, 73.23°W
Report Text: CYHU 220000Z AUTO 04005KT 7SM OVC021 M09/M11 A3042 RMK SLP302
Loading
Personal Weather Stations






























Interactive Weather Map New forecast layout! Learn more

10-Day Weather Forecast

Advertisements
Track Severe Weather on mobile